Time,TemperatureF,DewpointF,PressureIn,WindDirection,WindDirectionDegrees,WindSpeedMPH,WindSpeedGustMPH,Humidity,HourlyPrecipIn,Conditions,Clouds,dailyrainin,SoftwareType,DateUTC
2013-05-02 00:03:00,48.0,42.0,30.47,SW,222,0.0,-999.0,80,-99.99,,,-99.99,,2013-05-02 04:03:00,
2013-05-02 00:12:00,48.0,42.0,30.47,SW,222,0.0,-999.0,80,-99.99,,,-99.99,,2013-05-02 04:12:00,
2013-05-02 00:23:00,48.0,41.0,30.47,SW,222,0.0,-999.0,77,-99.99,,,-99.99,,2013-05-02 04:23:00,
2013-05-02 00:33:00,48.0,41.0,30.47,SW,222,0.0,-999.0,78,-99.99,,,-99.99,,2013-05-02 04:33:00,
2013-05-02 00:42:00,48.0,41.0,30.47,SW,222,0.0,-999.0,78,-99.99,,,-99.99,,2013-05-02 04:42:00,
2013-05-02 00:52:00,48.0,41.0,30.46,SW,221,0.0,-999.0,78,-99.99,,,-99.99,,2013-05-02 04:52:00,
2013-05-02 01:02:00,48.0,42.0,30.46,SW,221,0.0,-999.0,80,-99.99,,,-99.99,,2013-05-02 05:02:00,
2013-05-02 01:12:00,48.0,42.0,30.46,SW,221,0.0,-999.0,80,-99.99,,,-99.99,,2013-05-02 05:12:00,
2013-05-02 01:22:00,47.0,41.0,30.46,SW,222,0.0,-999.0,80,-99.99,,,-99.99,,2013-05-02 05:22:00,
2013-05-02 01:32:00,47.0,41.0,30.45,SW,222,0.0,-999.0,81,-99.99,,,-99.99,,2013-05-02 05:32:00,
2013-05-02 01:42:00,47.0,41.0,30.45,SW,222,0.0,-999.0,81,-99.99,,,-99.99,,2013-05-02 05:42:00,
2013-05-02 01:52:00,47.0,42.0,30.45,SW,222,0.0,-999.0,82,-99.99,,,-99.99,,2013-05-02 05:52:00,
2013-05-02 02:01:00,46.0,41.0,30.45,SW,221,0.0,-999.0,83,-99.99,,,-99.99,,2013-05-02 06:01:00,
2013-05-02 02:12:00,46.0,41.0,30.45,SW,221,0.0,-999.0,83,-99.99,,,-99.99,,2013-05-02 06:12:00,
2013-05-02 02:21:00,46.0,41.0,30.45,SW,221,0.0,-999.0,83,-99.99,,,-99.99,,2013-05-02 06:21:00,
2013-05-02 02:32:00,46.0,41.0,30.45,SW,222,0.0,-999.0,84,-99.99,,,-99.99,,2013-05-02 06:32:00,
2013-05-02 02:42:00,46.0,41.0,30.45,SW,222,0.0,-999.0,84,-99.99,,,-99.99,,2013-05-02 06:42:00,
2013-05-02 02:52:00,45.0,40.0,30.44,SW,222,0.0,-999.0,83,-99.99,,,-99.99,,2013-05-02 06:52:00,
2013-05-02 03:02:00,45.0,40.0,30.43,SW,222,0.0,-999.0,84,-99.99,,,-99.99,,2013-05-02 07:02:00,
2013-05-02 03:11:00,45.0,40.0,30.43,SW,222,0.0,-999.0,84,-99.99,,,-99.99,,2013-05-02 07:11:00,
2013-05-02 03:21:00,45.0,41.0,30.43,SW,222,0.0,-999.0,85,-99.99,,,-99.99,,2013-05-02 07:21:00,
2013-05-02 03:32:00,45.0,38.0,30.43,SW,221,0.0,-999.0,77,-99.99,,,-99.99,,2013-05-02 07:32:00,
2013-05-02 03:42:00,45.0,38.0,30.43,SW,221,0.0,-999.0,77,-99.99,,,-99.99,,2013-05-02 07:42:00,
2013-05-02 03:52:00,45.0,38.0,30.42,SW,221,0.0,-999.0,76,-99.99,,,-99.99,,2013-05-02 07:52:00,
2013-05-02 04:02:00,44.0,37.0,30.42,SW,222,0.0,-999.0,77,-99.99,,,-99.99,,2013-05-02 08:02:00,
2013-05-02 04:11:00,44.0,37.0,30.42,SW,222,0.0,-999.0,77,-99.99,,,-99.99,,2013-05-02 08:11:00,
2013-05-02 04:22:00,44.0,37.0,30.42,SW,222,0.0,-999.0,77,-99.99,,,-99.99,,2013-05-02 08:22:00,
2013-05-02 04:32:00,45.0,38.0,30.42,SW,222,0.0,-999.0,76,-99.99,,,-99.99,,2013-05-02 08:32:00,
2013-05-02 04:42:00,45.0,38.0,30.42,SW,222,0.0,-999.0,76,-99.99,,,-99.99,,2013-05-02 08:42:00,
2013-05-02 04:52:00,45.0,38.0,30.42,SW,221,0.0,-999.0,75,-99.99,,,-99.99,,2013-05-02 08:52:00,
2013-05-02 05:02:00,45.0,37.0,30.42,SW,221,0.0,-999.0,74,-99.99,,,-99.99,,2013-05-02 09:02:00,
2013-05-02 05:12:00,45.0,37.0,30.42,SW,221,0.0,-999.0,74,-99.99,,,-99.99,,2013-05-02 09:12:00,
2013-05-02 05:21:00,44.0,37.0,30.42,SW,222,0.0,-999.0,76,-99.99,,,-99.99,,2013-05-02 09:21:00,
2013-05-02 05:33:00,43.0,36.0,30.42,SW,222,0.0,-999.0,77,-99.99,,,-99.99,,2013-05-02 09:33:00,
2013-05-02 05:42:00,43.0,36.0,30.42,SW,222,0.0,-999.0,77,-99.99,,,-99.99,,2013-05-02 09:42:00,
2013-05-02 05:52:00,43.0,36.0,30.41,SW,222,0.0,-999.0,76,-99.99,,,-99.99,,2013-05-02 09:52:00,
2013-05-02 06:03:00,43.0,36.0,30.42,West,265,0.0,-999.0,75,-99.99,,,-99.99,,2013-05-02 10:03:00,
2013-05-02 06:12:00,43.0,36.0,30.42,West,265,0.0,-999.0,75,-99.99,,,-99.99,,2013-05-02 10:12:00,
2013-05-02 06:22:00,44.0,37.0,30.41,West,264,0.0,-999.0,75,-99.99,,,-99.99,,2013-05-02 10:22:00,
2013-05-02 06:33:00,43.0,36.0,30.42,West,265,0.0,-999.0,77,-99.99,,,-99.99,,2013-05-02 10:33:00,
2013-05-02 06:42:00,43.0,36.0,30.42,West,265,0.0,-999.0,77,-99.99,,,-99.99,,2013-05-02 10:42:00,
2013-05-02 06:52:00,43.0,37.0,30.42,West,265,0.0,-999.0,79,-99.99,,,-99.99,,2013-05-02 10:52:00,
2013-05-02 07:02:00,43.0,37.0,30.43,West,265,0.0,-999.0,79,-99.99,,,-99.99,,2013-05-02 11:02:00,
2013-05-02 07:12:00,43.0,37.0,30.43,West,265,0.0,-999.0,79,-99.99,,,-99.99,,2013-05-02 11:12:00,
2013-05-02 07:22:00,44.0,38.0,30.44,West,265,0.0,-999.0,78,-99.99,,,-99.99,,2013-05-02 11:22:00,
2013-05-02 07:32:00,45.0,38.0,30.44,West,264,0.0,-999.0,76,-99.99,,,-99.99,,2013-05-02 11:32:00,
2013-05-02 07:42:00,45.0,38.0,30.44,West,264,0.0,-999.0,76,-99.99,,,-99.99,,2013-05-02 11:42:00,
2013-05-02 07:52:00,46.0,37.0,30.45,West,264,0.0,-999.0,72,-99.99,,,-99.99,,2013-05-02 11:52:00,
2013-05-02 08:01:00,47.0,38.0,30.45,West,265,0.0,-999.0,70,-99.99,,,-99.99,,2013-05-02 12:01:00,
2013-05-02 08:12:00,47.0,38.0,30.45,West,265,0.0,-999.0,70,-99.99,,,-99.99,,2013-05-02 12:12:00,
2013-05-02 08:21:00,49.0,39.0,30.45,West,266,0.0,-999.0,69,-99.99,,,-99.99,,2013-05-02 12:21:00,
2013-05-02 08:32:00,50.0,40.0,30.45,West,266,0.0,-999.0,68,-99.99,,,-99.99,,2013-05-02 12:32:00,
2013-05-02 08:42:00,50.0,40.0,30.45,West,266,0.0,-999.0,68,-99.99,,,-99.99,,2013-05-02 12:42:00,
2013-05-02 08:52:00,53.0,40.0,30.45,West,266,0.0,-999.0,61,-99.99,,,-99.99,,2013-05-02 12:52:00,
2013-05-02 09:01:00,55.0,40.0,30.45,West,271,0.0,-999.0,57,-99.99,,,-99.99,,2013-05-02 13:01:00,
2013-05-02 09:11:00,55.0,40.0,30.45,West,271,0.0,-999.0,57,-99.99,,,-99.99,,2013-05-02 13:11:00,
2013-05-02 09:22:00,56.0,40.0,30.45,West,272,0.0,-999.0,55,-99.99,,,-99.99,,2013-05-02 13:22:00,
2013-05-02 09:32:00,57.0,40.0,30.45,West,277,0.0,-999.0,52,-99.99,,,-99.99,,2013-05-02 13:32:00,
2013-05-02 09:42:00,57.0,40.0,30.45,West,277,0.0,-999.0,52,-99.99,,,-99.99,,2013-05-02 13:42:00,
2013-05-02 09:52:00,59.0,40.0,30.45,West,277,0.0,-999.0,50,-99.99,,,-99.99,,2013-05-02 13:52:00,
2013-05-02 10:02:00,60.0,40.0,30.45,NW,320,0.0,-999.0,48,-99.99,,,-99.99,,2013-05-02 14:02:00,
2013-05-02 10:11:00,60.0,40.0,30.45,NW,320,0.0,-999.0,48,-99.99,,,-99.99,,2013-05-02 14:11:00,
2013-05-02 10:22:00,62.0,40.0,30.45,NNE,24,1.0,-999.0,45,-99.99,,,-99.99,,2013-05-02 14:22:00,
2013-05-02 10:32:00,63.0,38.0,30.45,NE,46,0.0,-999.0,40,-99.99,,,-99.99,,2013-05-02 14:32:00,
2013-05-02 10:42:00,63.0,38.0,30.45,NE,46,0.0,-999.0,40,-99.99,,,-99.99,,2013-05-02 14:42:00,
2013-05-02 10:52:00,64.0,39.0,30.45,NE,48,0.0,-999.0,40,-99.99,,,-99.99,,2013-05-02 14:52:00,
2013-05-02 11:02:00,66.0,40.0,30.45,NNE,17,2.0,-999.0,38,-99.99,,,-99.99,,2013-05-02 15:02:00,
2013-05-02 11:12:00,66.0,40.0,30.45,NNE,17,2.0,-999.0,38,-99.99,,,-99.99,,2013-05-02 15:12:00,
2013-05-02 11:22:00,66.0,37.0,30.45,NE,37,2.0,-999.0,34,-99.99,,,-99.99,,2013-05-02 15:22:00,
2013-05-02 11:33:00,67.0,38.0,30.44,North,10,0.0,-999.0,35,-99.99,,,-99.99,,2013-05-02 15:33:00,
2013-05-02 11:43:00,67.0,38.0,30.44,North,10,0.0,-999.0,35,-99.99,,,-99.99,,2013-05-02 15:43:00,
2013-05-02 12:03:00,67.0,38.0,30.43,NNE,25,1.0,-999.0,35,-99.99,,,-99.99,,2013-05-02 16:03:00,
2013-05-02 12:13:00,67.0,38.0,30.43,NNE,25,1.0,-999.0,35,-99.99,,,-99.99,,2013-05-02 16:13:00,
2013-05-02 12:22:00,69.0,37.0,30.42,East,79,0.0,-999.0,31,-99.99,,,-99.99,,2013-05-02 16:22:00,
2013-05-02 12:32:00,69.0,39.0,30.41,NNE,19,1.0,-999.0,33,-99.99,,,-99.99,,2013-05-02 16:32:00,
2013-05-02 12:43:00,69.0,39.0,30.41,NNE,19,1.0,-999.0,33,-99.99,,,-99.99,,2013-05-02 16:43:00,
2013-05-02 12:52:00,71.0,41.0,30.41,NNE,13,0.0,-999.0,34,-99.99,,,-99.99,,2013-05-02 16:52:00,
2013-05-02 13:02:00,71.0,38.0,30.40,North,10,1.0,-999.0,30,-99.99,,,-99.99,,2013-05-02 17:02:00,
2013-05-02 13:12:00,71.0,38.0,30.40,North,10,1.0,-999.0,30,-99.99,,,-99.99,,2013-05-02 17:12:00,
2013-05-02 13:22:00,72.0,39.0,30.39,WNW,303,0.0,-999.0,30,-99.99,,,-99.99,,2013-05-02 17:22:00,
2013-05-02 13:32:00,73.0,38.0,30.39,SE,136,0.0,-999.0,28,-99.99,,,-99.99,,2013-05-02 17:32:00,
2013-05-02 13:42:00,73.0,38.0,30.39,SE,136,0.0,-999.0,28,-99.99,,,-99.99,,2013-05-02 17:42:00,
2013-05-02 13:52:00,73.0,38.0,30.38,North,8,1.0,-999.0,28,-99.99,,,-99.99,,2013-05-02 17:52:00,
2013-05-02 14:01:00,75.0,38.0,30.38,East,91,1.0,-999.0,26,-99.99,,,-99.99,,2013-05-02 18:01:00,
2013-05-02 14:12:00,75.0,38.0,30.38,East,91,1.0,-999.0,26,-99.99,,,-99.99,,2013-05-02 18:12:00,
2013-05-02 14:22:00,75.0,38.0,30.37,NE,42,1.0,-999.0,26,-99.99,,,-99.99,,2013-05-02 18:22:00,
2013-05-02 14:32:00,76.0,37.0,30.37,SSE,166,1.0,-999.0,24,-99.99,,,-99.99,,2013-05-02 18:32:00,
2013-05-02 14:42:00,76.0,37.0,30.37,SSE,166,1.0,-999.0,24,-99.99,,,-99.99,,2013-05-02 18:42:00,
2013-05-02 14:52:00,76.0,36.0,30.37,ENE,77,1.0,-999.0,23,-99.99,,,-99.99,,2013-05-02 18:52:00,
2013-05-02 15:01:00,77.0,35.0,30.36,NNW,341,1.0,-999.0,22,-99.99,,,-99.99,,2013-05-02 19:01:00,
2013-05-02 15:11:00,77.0,35.0,30.36,NNW,341,1.0,-999.0,22,-99.99,,,-99.99,,2013-05-02 19:11:00,
2013-05-02 15:22:00,78.0,39.0,30.35,East,97,0.0,-999.0,25,-99.99,,,-99.99,,2013-05-02 19:22:00,
2013-05-02 15:32:00,77.0,35.0,30.35,SE,124,1.0,-999.0,22,-99.99,,,-99.99,,2013-05-02 19:32:00,
2013-05-02 15:42:00,77.0,35.0,30.35,SE,124,1.0,-999.0,22,-99.99,,,-99.99,,2013-05-02 19:42:00,
2013-05-02 15:52:00,78.0,37.0,30.34,SE,129,0.0,-999.0,23,-99.99,,,-99.99,,2013-05-02 19:52:00,
2013-05-02 16:02:00,78.0,38.0,30.34,South,185,0.0,-999.0,24,-99.99,,,-99.99,,2013-05-02 20:02:00,
2013-05-02 16:11:00,78.0,38.0,30.34,South,185,0.0,-999.0,24,-99.99,,,-99.99,,2013-05-02 20:11:00,
2013-05-02 16:22:00,77.0,39.0,30.33,SW,233,2.0,-999.0,26,-99.99,,,-99.99,,2013-05-02 20:22:00,
2013-05-02 16:32:00,76.0,38.0,30.32,SW,214,3.0,-999.0,25,-99.99,,,-99.99,,2013-05-02 20:32:00,
2013-05-02 16:42:00,76.0,38.0,30.32,SW,214,3.0,-999.0,25,-99.99,,,-99.99,,2013-05-02 20:42:00,
2013-05-02 16:52:00,76.0,40.0,30.32,SW,236,2.0,-999.0,27,-99.99,,,-99.99,,2013-05-02 20:52:00,
2013-05-02 17:01:00,75.0,39.0,30.32,SW,232,2.0,-999.0,27,-99.99,,,-99.99,,2013-05-02 21:01:00,
2013-05-02 17:12:00,75.0,39.0,30.32,SW,232,2.0,-999.0,27,-99.99,,,-99.99,,2013-05-02 21:12:00,
2013-05-02 17:21:00,74.0,38.0,30.32,SSW,205,1.0,-999.0,27,-99.99,,,-99.99,,2013-05-02 21:21:00,
2013-05-02 17:33:00,73.0,39.0,30.31,South,170,3.0,-999.0,29,-99.99,,,-99.99,,2013-05-02 21:33:00,
2013-05-02 17:42:00,73.0,39.0,30.31,South,170,3.0,-999.0,29,-99.99,,,-99.99,,2013-05-02 21:42:00,
2013-05-02 17:53:00,73.0,39.0,30.32,SSW,206,2.0,-999.0,29,-99.99,,,-99.99,,2013-05-02 21:53:00,
2013-05-02 18:03:00,72.0,38.0,30.31,SW,224,2.0,-999.0,29,-99.99,,,-99.99,,2013-05-02 22:03:00,
2013-05-02 18:12:00,72.0,38.0,30.31,SW,224,2.0,-999.0,29,-99.99,,,-99.99,,2013-05-02 22:12:00,
2013-05-02 18:22:00,72.0,38.0,30.31,SW,224,2.0,-999.0,29,-99.99,,,-99.99,,2013-05-02 22:22:00,
2013-05-02 18:32:00,70.0,37.0,30.30,SSW,210,1.0,-999.0,30,-99.99,,,-99.99,,2013-05-02 22:32:00,
2013-05-02 18:42:00,70.0,37.0,30.30,SSW,210,1.0,-999.0,30,-99.99,,,-99.99,,2013-05-02 22:42:00,
2013-05-02 18:53:00,69.0,38.0,30.30,SSW,205,1.0,-999.0,32,-99.99,,,-99.99,,2013-05-02 22:53:00,
2013-05-02 19:02:00,69.0,39.0,30.30,SW,226,0.0,-999.0,33,-99.99,,,-99.99,,2013-05-02 23:02:00,
2013-05-02 19:11:00,69.0,39.0,30.30,SW,226,0.0,-999.0,33,-99.99,,,-99.99,,2013-05-02 23:11:00,
2013-05-02 19:22:00,68.0,39.0,30.30,SW,233,1.0,-999.0,34,-99.99,,,-99.99,,2013-05-02 23:22:00,
2013-05-02 19:32:00,67.0,38.0,30.30,SW,234,0.0,-999.0,34,-99.99,,,-99.99,,2013-05-02 23:32:00,
2013-05-02 19:42:00,67.0,38.0,30.30,SW,234,0.0,-999.0,34,-99.99,,,-99.99,,2013-05-02 23:42:00,
2013-05-02 19:51:00,67.0,39.0,30.31,SW,224,0.0,-999.0,36,-99.99,,,-99.99,,2013-05-02 23:51:00,
2013-05-02 20:01:00,65.0,38.0,30.31,SW,223,0.0,-999.0,37,-99.99,,,-99.99,,2013-05-03 00:01:00,
2013-05-02 20:11:00,65.0,38.0,30.31,SW,223,0.0,-999.0,37,-99.99,,,-99.99,,2013-05-03 00:11:00,
2013-05-02 20:21:00,64.0,43.0,30.31,SSW,206,0.0,-999.0,47,-99.99,,,-99.99,,2013-05-03 00:21:00,
2013-05-02 20:32:00,63.0,44.0,30.31,SSW,206,0.0,-999.0,50,-99.99,,,-99.99,,2013-05-03 00:32:00,
2013-05-02 20:42:00,63.0,44.0,30.31,SSW,206,0.0,-999.0,50,-99.99,,,-99.99,,2013-05-03 00:42:00,
2013-05-02 20:52:00,62.0,45.0,30.33,SW,223,0.0,-999.0,53,-99.99,,,-99.99,,2013-05-03 00:52:00,
2013-05-02 21:01:00,61.0,44.0,30.35,SSE,162,0.0,-999.0,54,-99.99,,,-99.99,,2013-05-03 01:01:00,
2013-05-02 21:11:00,61.0,44.0,30.35,SSE,162,0.0,-999.0,54,-99.99,,,-99.99,,2013-05-03 01:11:00,
2013-05-02 21:21:00,60.0,43.0,30.36,SE,141,0.0,-999.0,54,-99.99,,,-99.99,,2013-05-03 01:21:00,
2013-05-02 21:32:00,59.0,42.0,30.37,South,171,1.0,-999.0,54,-99.99,,,-99.99,,2013-05-03 01:32:00,
2013-05-02 21:42:00,59.0,42.0,30.37,South,171,1.0,-999.0,54,-99.99,,,-99.99,,2013-05-03 01:42:00,
2013-05-02 21:52:00,59.0,43.0,30.38,SE,141,0.0,-999.0,55,-99.99,,,-99.99,,2013-05-03 01:52:00,
2013-05-02 22:01:00,58.0,43.0,30.38,SSE,147,0.0,-999.0,57,-99.99,,,-99.99,,2013-05-03 02:01:00,
2013-05-02 22:11:00,58.0,43.0,30.38,SSE,147,0.0,-999.0,57,-99.99,,,-99.99,,2013-05-03 02:11:00,
2013-05-02 22:22:00,58.0,43.0,30.39,SSE,149,0.0,-999.0,57,-99.99,,,-99.99,,2013-05-03 02:22:00,
2013-05-02 22:32:00,58.0,42.0,30.40,SE,126,0.0,-999.0,56,-99.99,,,-99.99,,2013-05-03 02:32:00,
2013-05-02 22:42:00,58.0,42.0,30.40,SE,126,0.0,-999.0,56,-99.99,,,-99.99,,2013-05-03 02:42:00,
2013-05-02 22:52:00,57.0,41.0,30.40,ESE,121,0.0,-999.0,56,-99.99,,,-99.99,,2013-05-03 02:52:00,
2013-05-02 23:01:00,57.0,41.0,30.40,ESE,122,0.0,-999.0,55,-99.99,,,-99.99,,2013-05-03 03:01:00,
2013-05-02 23:11:00,57.0,41.0,30.40,ESE,122,0.0,-999.0,55,-99.99,,,-99.99,,2013-05-03 03:11:00,
2013-05-02 23:21:00,56.0,41.0,30.40,ESE,121,0.0,-999.0,56,-99.99,,,-99.99,,2013-05-03 03:21:00,
2013-05-02 23:33:00,56.0,41.0,30.40,ESE,122,0.0,-999.0,56,-99.99,,,-99.99,,2013-05-03 03:33:00,
2013-05-02 23:43:00,56.0,41.0,30.40,ESE,122,0.0,-999.0,56,-99.99,,,-99.99,,2013-05-03 03:43:00,
2013-05-02 23:53:00,56.0,41.0,30.40,ESE,122,0.0,-999.0,57,-99.99,,,-99.99,,2013-05-03 03:53:00,